sensor_id;sensor_type;location;lat;lon;timestamp;temperature;humidity
52187;DHT22;38161;53.020;6.598;2024-03-29T00:00:46;8.00;99.90
52187;DHT22;38161;53.020;6.598;2024-03-29T00:03:12;8.00;99.90
52187;DHT22;38161;53.020;6.598;2024-03-29T00:05:38;8.00;99.90
52187;DHT22;38161;53.020;6.598;2024-03-29T00:08:04;8.00;99.90
52187;DHT22;38161;53.020;6.598;2024-03-29T00:10:30;8.00;99.90
52187;DHT22;38161;53.020;6.598;2024-03-29T00:12:55;8.00;99.90
52187;DHT22;38161;53.020;6.598;2024-03-29T00:15:21;8.00;99.90
52187;DHT22;38161;53.020;6.598;2024-03-29T00:17:47;8.00;99.90
52187;DHT22;38161;53.020;6.598;2024-03-29T00:20:13;8.00;99.90
52187;DHT22;38161;53.020;6.598;2024-03-29T00:22:39;8.00;99.90
52187;DHT22;38161;53.020;6.598;2024-03-29T00:25:05;8.00;99.90
52187;DHT22;38161;53.020;6.598;2024-03-29T00:27:31;8.00;99.90
52187;DHT22;38161;53.020;6.598;2024-03-29T00:29:58;8.00;99.90
52187;DHT22;38161;53.020;6.598;2024-03-29T00:32:24;8.00;99.90
52187;DHT22;38161;53.020;6.598;2024-03-29T00:34:52;8.10;99.90
52187;DHT22;38161;53.020;6.598;2024-03-29T00:37:18;8.00;99.90
52187;DHT22;38161;53.020;6.598;2024-03-29T00:39:45;8.00;99.90
52187;DHT22;38161;53.020;6.598;2024-03-29T00:42:11;8.00;99.90
52187;DHT22;38161;53.020;6.598;2024-03-29T00:44:44;8.00;99.90
52187;DHT22;38161;53.020;6.598;2024-03-29T00:47:10;8.00;99.90
52187;DHT22;38161;53.020;6.598;2024-03-29T00:49:35;8.00;99.90
52187;DHT22;38161;53.020;6.598;2024-03-29T00:52:03;8.00;99.90
52187;DHT22;38161;53.020;6.598;2024-03-29T00:54:29;8.00;99.90
52187;DHT22;38161;53.020;6.598;2024-03-29T00:56:56;8.00;99.90
52187;DHT22;38161;53.020;6.598;2024-03-29T00:59:21;8.00;99.90
52187;DHT22;38161;53.020;6.598;2024-03-29T01:01:47;8.00;99.90
52187;DHT22;38161;53.020;6.598;2024-03-29T01:04:13;8.00;99.90
52187;DHT22;38161;53.020;6.598;2024-03-29T01:06:39;8.00;99.90
52187;DHT22;38161;53.020;6.598;2024-03-29T01:09:08;8.00;99.90
52187;DHT22;38161;53.020;6.598;2024-03-29T01:11:37;8.00;99.90
52187;DHT22;38161;53.020;6.598;2024-03-29T01:14:04;8.00;99.90
52187;DHT22;38161;53.020;6.598;2024-03-29T01:16:30;8.00;99.90
52187;DHT22;38161;53.020;6.598;2024-03-29T01:18:57;7.90;99.90
52187;DHT22;38161;53.020;6.598;2024-03-29T01:21:23;7.90;99.90
52187;DHT22;38161;53.020;6.598;2024-03-29T01:23:49;7.90;99.90
52187;DHT22;38161;53.020;6.598;2024-03-29T01:26:15;7.90;99.90
52187;DHT22;38161;53.020;6.598;2024-03-29T01:28:43;7.90;99.90
52187;DHT22;38161;53.020;6.598;2024-03-29T01:31:09;7.80;99.90
52187;DHT22;38161;53.020;6.598;2024-03-29T01:33:35;7.80;99.90
52187;DHT22;38161;53.020;6.598;2024-03-29T01:36:04;7.80;99.90
52187;DHT22;38161;53.020;6.598;2024-03-29T01:38:30;7.80;99.90
52187;DHT22;38161;53.020;6.598;2024-03-29T01:40:56;7.80;99.90
52187;DHT22;38161;53.020;6.598;2024-03-29T01:43:21;7.80;99.90
52187;DHT22;38161;53.020;6.598;2024-03-29T01:45:48;7.70;99.90
52187;DHT22;38161;53.020;6.598;2024-03-29T01:48:16;7.70;99.90
52187;DHT22;38161;53.020;6.598;2024-03-29T01:50:43;7.70;99.90
52187;DHT22;38161;53.020;6.598;2024-03-29T01:53:09;7.70;99.90
52187;DHT22;38161;53.020;6.598;2024-03-29T01:55:36;7.70;99.90
52187;DHT22;38161;53.020;6.598;2024-03-29T01:58:02;7.70;99.90
52187;DHT22;38161;53.020;6.598;2024-03-29T02:00:29;7.70;99.90
52187;DHT22;38161;53.020;6.598;2024-03-29T02:02:56;7.60;99.90
52187;DHT22;38161;53.020;6.598;2024-03-29T02:05:22;7.60;99.90
52187;DHT22;38161;53.020;6.598;2024-03-29T02:07:48;7.60;99.90
52187;DHT22;38161;53.020;6.598;2024-03-29T02:10:15;7.60;99.90
52187;DHT22;38161;53.020;6.598;2024-03-29T02:12:41;7.60;99.90
52187;DHT22;38161;53.020;6.598;2024-03-29T02:15:07;7.50;99.90
52187;DHT22;38161;53.020;6.598;2024-03-29T02:17:33;7.60;99.90
52187;DHT22;38161;53.020;6.598;2024-03-29T02:19:59;7.50;99.90
52187;DHT22;38161;53.020;6.598;2024-03-29T02:22:25;7.50;99.90
52187;DHT22;38161;53.020;6.598;2024-03-29T02:24:53;7.50;99.90
52187;DHT22;38161;53.020;6.598;2024-03-29T02:27:20;7.50;99.90
52187;DHT22;38161;53.020;6.598;2024-03-29T02:29:46;7.50;99.90
52187;DHT22;38161;53.020;6.598;2024-03-29T02:32:12;7.50;99.90
52187;DHT22;38161;53.020;6.598;2024-03-29T02:34:38;7.50;99.90
52187;DHT22;38161;53.020;6.598;2024-03-29T02:37:04;7.50;99.90
52187;DHT22;38161;53.020;6.598;2024-03-29T02:39:30;7.50;99.90
52187;DHT22;38161;53.020;6.598;2024-03-29T02:41:56;7.50;99.90
52187;DHT22;38161;53.020;6.598;2024-03-29T02:44:21;7.50;99.90
52187;DHT22;38161;53.020;6.598;2024-03-29T02:46:47;7.50;99.90
52187;DHT22;38161;53.020;6.598;2024-03-29T02:49:13;7.50;99.90
52187;DHT22;38161;53.020;6.598;2024-03-29T02:51:39;7.50;99.90
52187;DHT22;38161;53.020;6.598;2024-03-29T02:54:04;7.50;99.90
52187;DHT22;38161;53.020;6.598;2024-03-29T02:56:30;7.50;99.90
52187;DHT22;38161;53.020;6.598;2024-03-29T02:58:56;7.60;99.90
52187;DHT22;38161;53.020;6.598;2024-03-29T03:01:22;7.50;99.90
52187;DHT22;38161;53.020;6.598;2024-03-29T03:03:47;7.50;99.90
52187;DHT22;38161;53.020;6.598;2024-03-29T03:06:13;7.50;99.90
52187;DHT22;38161;53.020;6.598;2024-03-29T03:08:39;7.50;99.90
52187;DHT22;38161;53.020;6.598;2024-03-29T03:11:23;7.60;99.90
52187;DHT22;38161;53.020;6.598;2024-03-29T03:13:49;7.60;99.90
52187;DHT22;38161;53.020;6.598;2024-03-29T03:16:15;7.50;99.90
52187;DHT22;38161;53.020;6.598;2024-03-29T03:18:41;7.50;99.90
52187;DHT22;38161;53.020;6.598;2024-03-29T03:21:06;7.60;99.90
52187;DHT22;38161;53.020;6.598;2024-03-29T03:23:32;7.60;99.90
52187;DHT22;38161;53.020;6.598;2024-03-29T03:25:59;7.60;99.90
52187;DHT22;38161;53.020;6.598;2024-03-29T03:28:25;7.60;99.90
52187;DHT22;38161;53.020;6.598;2024-03-29T03:30:52;7.60;99.90
52187;DHT22;38161;53.020;6.598;2024-03-29T03:33:19;7.60;99.90
52187;DHT22;38161;53.020;6.598;2024-03-29T03:35:45;7.60;99.90
52187;DHT22;38161;53.020;6.598;2024-03-29T03:38:11;7.60;99.90
52187;DHT22;38161;53.020;6.598;2024-03-29T03:40:37;7.60;99.90
52187;DHT22;38161;53.020;6.598;2024-03-29T03:43:04;7.60;99.90
52187;DHT22;38161;53.020;6.598;2024-03-29T03:45:38;7.70;99.90
52187;DHT22;38161;53.020;6.598;2024-03-29T03:48:06;7.60;99.90
52187;DHT22;38161;53.020;6.598;2024-03-29T03:50:32;7.70;99.90
52187;DHT22;38161;53.020;6.598;2024-03-29T03:52:59;7.70;99.90
52187;DHT22;38161;53.020;6.598;2024-03-29T03:55:25;7.70;99.90
52187;DHT22;38161;53.020;6.598;2024-03-29T03:57:51;7.70;99.90
52187;DHT22;38161;53.020;6.598;2024-03-29T04:00:19;7.70;99.90
52187;DHT22;38161;53.020;6.598;2024-03-29T04:02:51;7.70;99.90
52187;DHT22;38161;53.020;6.598;2024-03-29T04:05:18;7.70;99.90
52187;DHT22;38161;53.020;6.598;2024-03-29T04:07:44;7.70;99.90
52187;DHT22;38161;53.020;6.598;2024-03-29T04:10:11;7.70;99.90
52187;DHT22;38161;53.020;6.598;2024-03-29T04:12:37;7.70;99.90
52187;DHT22;38161;53.020;6.598;2024-03-29T04:15:03;7.80;99.90
52187;DHT22;38161;53.020;6.598;2024-03-29T04:17:30;7.70;99.90
52187;DHT22;38161;53.020;6.598;2024-03-29T04:19:57;7.80;99.90
52187;DHT22;38161;53.020;6.598;2024-03-29T04:22:23;7.80;99.90
52187;DHT22;38161;53.020;6.598;2024-03-29T04:24:49;7.80;99.90
52187;DHT22;38161;53.020;6.598;2024-03-29T04:27:15;7.80;99.90
52187;DHT22;38161;53.020;6.598;2024-03-29T04:29:41;7.80;99.90
52187;DHT22;38161;53.020;6.598;2024-03-29T04:32:08;7.80;99.90
52187;DHT22;38161;53.020;6.598;2024-03-29T04:34:34;7.80;99.90
52187;DHT22;38161;53.020;6.598;2024-03-29T04:37:00;7.80;99.90
52187;DHT22;38161;53.020;6.598;2024-03-29T04:39:25;7.80;99.90
52187;DHT22;38161;53.020;6.598;2024-03-29T04:41:51;7.80;99.90
52187;DHT22;38161;53.020;6.598;2024-03-29T04:44:27;7.80;99.90
52187;DHT22;38161;53.020;6.598;2024-03-29T04:46:54;7.80;99.90
52187;DHT22;38161;53.020;6.598;2024-03-29T04:49:22;7.80;99.90
52187;DHT22;38161;53.020;6.598;2024-03-29T04:51:56;7.80;99.90
52187;DHT22;38161;53.020;6.598;2024-03-29T04:54:22;7.90;99.90
52187;DHT22;38161;53.020;6.598;2024-03-29T04:56:48;7.90;99.90
52187;DHT22;38161;53.020;6.598;2024-03-29T04:59:13;7.90;99.90
52187;DHT22;38161;53.020;6.598;2024-03-29T05:01:45;7.90;99.90
52187;DHT22;38161;53.020;6.598;2024-03-29T05:04:16;7.90;99.90
52187;DHT22;38161;53.020;6.598;2024-03-29T05:06:44;7.90;99.90
52187;DHT22;38161;53.020;6.598;2024-03-29T05:09:11;8.00;99.90
52187;DHT22;38161;53.020;6.598;2024-03-29T05:11:40;8.00;99.90
52187;DHT22;38161;53.020;6.598;2024-03-29T05:14:05;8.00;99.90
52187;DHT22;38161;53.020;6.598;2024-03-29T05:16:31;8.00;99.90
52187;DHT22;38161;53.020;6.598;2024-03-29T05:18:57;8.10;99.90
52187;DHT22;38161;53.020;6.598;2024-03-29T05:21:23;8.10;99.90
52187;DHT22;38161;53.020;6.598;2024-03-29T05:23:49;8.10;99.90
52187;DHT22;38161;53.020;6.598;2024-03-29T05:26:14;8.10;99.90
52187;DHT22;38161;53.020;6.598;2024-03-29T05:28:40;8.10;99.90
52187;DHT22;38161;53.020;6.598;2024-03-29T05:31:13;8.10;99.90
52187;DHT22;38161;53.020;6.598;2024-03-29T05:33:43;8.10;99.90
52187;DHT22;38161;53.020;6.598;2024-03-29T05:36:09;8.10;99.90
52187;DHT22;38161;53.020;6.598;2024-03-29T05:38:37;8.20;99.90
52187;DHT22;38161;53.020;6.598;2024-03-29T05:41:03;8.20;99.90
52187;DHT22;38161;53.020;6.598;2024-03-29T05:43:29;8.20;99.90
52187;DHT22;38161;53.020;6.598;2024-03-29T05:45:55;8.20;99.90
52187;DHT22;38161;53.020;6.598;2024-03-29T05:48:20;8.20;99.90
52187;DHT22;38161;53.020;6.598;2024-03-29T05:50:46;8.20;99.90
52187;DHT22;38161;53.020;6.598;2024-03-29T05:53:12;8.30;99.90
52187;DHT22;38161;53.020;6.598;2024-03-29T05:55:38;8.30;99.90
52187;DHT22;38161;53.020;6.598;2024-03-29T05:58:04;8.30;99.90
52187;DHT22;38161;53.020;6.598;2024-03-29T06:00:32;8.30;99.90
52187;DHT22;38161;53.020;6.598;2024-03-29T06:02:58;8.30;99.90
52187;DHT22;38161;53.020;6.598;2024-03-29T06:05:25;8.30;99.90
52187;DHT22;38161;53.020;6.598;2024-03-29T06:07:50;8.30;99.90
52187;DHT22;38161;53.020;6.598;2024-03-29T06:10:16;8.40;99.90
52187;DHT22;38161;53.020;6.598;2024-03-29T06:12:42;8.40;99.90
52187;DHT22;38161;53.020;6.598;2024-03-29T06:15:08;8.40;99.90
52187;DHT22;38161;53.020;6.598;2024-03-29T06:17:52;8.40;99.90
52187;DHT22;38161;53.020;6.598;2024-03-29T06:20:18;8.50;99.90
52187;DHT22;38161;53.020;6.598;2024-03-29T06:22:44;8.50;99.90
52187;DHT22;38161;53.020;6.598;2024-03-29T06:25:10;8.50;99.90
52187;DHT22;38161;53.020;6.598;2024-03-29T06:27:36;8.50;99.90
52187;DHT22;38161;53.020;6.598;2024-03-29T06:30:05;8.50;99.90
52187;DHT22;38161;53.020;6.598;2024-03-29T06:32:32;8.50;99.90
52187;DHT22;38161;53.020;6.598;2024-03-29T06:34:58;8.50;99.90
52187;DHT22;38161;53.020;6.598;2024-03-29T06:37:24;8.50;99.90
52187;DHT22;38161;53.020;6.598;2024-03-29T06:39:51;8.50;99.90
52187;DHT22;38161;53.020;6.598;2024-03-29T06:42:17;8.50;99.90
52187;DHT22;38161;53.020;6.598;2024-03-29T06:44:43;8.50;99.90
52187;DHT22;38161;53.020;6.598;2024-03-29T06:47:09;8.60;99.90
52187;DHT22;38161;53.020;6.598;2024-03-29T06:49:35;8.60;99.90
52187;DHT22;38161;53.020;6.598;2024-03-29T06:52:02;8.60;99.90
52187;DHT22;38161;53.020;6.598;2024-03-29T06:54:28;8.60;99.90
52187;DHT22;38161;53.020;6.598;2024-03-29T06:56:55;8.60;99.90
52187;DHT22;38161;53.020;6.598;2024-03-29T06:59:21;8.60;99.90
52187;DHT22;38161;53.020;6.598;2024-03-29T07:01:47;8.60;99.90
52187;DHT22;38161;53.020;6.598;2024-03-29T07:04:13;8.60;99.90
52187;DHT22;38161;53.020;6.598;2024-03-29T07:06:39;8.60;99.90
52187;DHT22;38161;53.020;6.598;2024-03-29T07:09:08;8.60;99.90
52187;DHT22;38161;53.020;6.598;2024-03-29T07:11:35;8.70;99.90
52187;DHT22;38161;53.020;6.598;2024-03-29T07:14:01;8.60;99.90
52187;DHT22;38161;53.020;6.598;2024-03-29T07:16:27;8.70;99.90
52187;DHT22;38161;53.020;6.598;2024-03-29T07:18:53;8.70;99.90
52187;DHT22;38161;53.020;6.598;2024-03-29T07:21:19;8.70;99.90
52187;DHT22;38161;53.020;6.598;2024-03-29T07:23:44;8.70;99.90
52187;DHT22;38161;53.020;6.598;2024-03-29T07:26:11;8.80;99.90
52187;DHT22;38161;53.020;6.598;2024-03-29T07:28:38;8.80;99.90
52187;DHT22;38161;53.020;6.598;2024-03-29T07:31:07;8.80;99.90
52187;DHT22;38161;53.020;6.598;2024-03-29T07:33:34;8.80;99.90
52187;DHT22;38161;53.020;6.598;2024-03-29T07:36:00;8.80;99.90
52187;DHT22;38161;53.020;6.598;2024-03-29T07:38:26;8.90;99.90
52187;DHT22;38161;53.020;6.598;2024-03-29T07:40:52;8.90;99.90
52187;DHT22;38161;53.020;6.598;2024-03-29T07:43:22;9.00;99.90
52187;DHT22;38161;53.020;6.598;2024-03-29T07:45:48;9.20;99.90
52187;DHT22;38161;53.020;6.598;2024-03-29T07:48:17;9.20;99.90
52187;DHT22;38161;53.020;6.598;2024-03-29T07:50:45;9.20;99.90
52187;DHT22;38161;53.020;6.598;2024-03-29T07:53:11;9.20;99.90
52187;DHT22;38161;53.020;6.598;2024-03-29T07:55:39;9.10;99.90
52187;DHT22;38161;53.020;6.598;2024-03-29T07:58:06;9.10;99.90
52187;DHT22;38161;53.020;6.598;2024-03-29T08:00:32;9.10;99.90
52187;DHT22;38161;53.020;6.598;2024-03-29T08:02:58;9.00;99.90
52187;DHT22;38161;53.020;6.598;2024-03-29T08:05:24;9.00;99.90
52187;DHT22;38161;53.020;6.598;2024-03-29T08:07:50;9.00;99.90
52187;DHT22;38161;53.020;6.598;2024-03-29T08:10:16;9.10;99.90
52187;DHT22;38161;53.020;6.598;2024-03-29T08:12:42;9.00;99.90
52187;DHT22;38161;53.020;6.598;2024-03-29T08:15:08;9.10;99.90
52187;DHT22;38161;53.020;6.598;2024-03-29T08:17:34;9.00;99.90
52187;DHT22;38161;53.020;6.598;2024-03-29T08:20:00;9.00;99.90
52187;DHT22;38161;53.020;6.598;2024-03-29T08:22:26;8.90;99.90
52187;DHT22;38161;53.020;6.598;2024-03-29T08:24:54;8.90;99.90
52187;DHT22;38161;53.020;6.598;2024-03-29T08:27:20;8.90;99.90
52187;DHT22;38161;53.020;6.598;2024-03-29T08:29:45;8.90;99.90
52187;DHT22;38161;53.020;6.598;2024-03-29T08:32:11;8.90;99.90
52187;DHT22;38161;53.020;6.598;2024-03-29T08:34:38;8.90;99.90
52187;DHT22;38161;53.020;6.598;2024-03-29T08:37:04;8.90;99.90
52187;DHT22;38161;53.020;6.598;2024-03-29T08:39:31;9.00;99.90
52187;DHT22;38161;53.020;6.598;2024-03-29T08:42:00;9.00;99.90
52187;DHT22;38161;53.020;6.598;2024-03-29T08:44:33;9.00;99.90
52187;DHT22;38161;53.020;6.598;2024-03-29T08:47:00;9.10;99.90
52187;DHT22;38161;53.020;6.598;2024-03-29T08:49:29;9.20;99.90
52187;DHT22;38161;53.020;6.598;2024-03-29T08:51:55;9.40;99.90
52187;DHT22;38161;53.020;6.598;2024-03-29T08:54:21;9.70;99.90
52187;DHT22;38161;53.020;6.598;2024-03-29T08:56:47;9.90;99.90
52187;DHT22;38161;53.020;6.598;2024-03-29T08:59:14;10.00;99.90
52187;DHT22;38161;53.020;6.598;2024-03-29T09:01:44;10.10;99.90
52187;DHT22;38161;53.020;6.598;2024-03-29T09:04:10;10.00;99.90
52187;DHT22;38161;53.020;6.598;2024-03-29T09:06:40;10.00;99.90
52187;DHT22;38161;53.020;6.598;2024-03-29T09:09:06;10.10;99.90
52187;DHT22;38161;53.020;6.598;2024-03-29T09:11:32;10.10;99.90
52187;DHT22;38161;53.020;6.598;2024-03-29T09:13:58;10.10;99.90
52187;DHT22;38161;53.020;6.598;2024-03-29T09:16:27;10.10;99.90
52187;DHT22;38161;53.020;6.598;2024-03-29T09:18:56;10.00;99.90
52187;DHT22;38161;53.020;6.598;2024-03-29T09:21:22;10.00;99.90
52187;DHT22;38161;53.020;6.598;2024-03-29T09:23:48;9.90;99.90
52187;DHT22;38161;53.020;6.598;2024-03-29T09:26:16;9.80;99.90
52187;DHT22;38161;53.020;6.598;2024-03-29T09:28:42;9.70;99.90
52187;DHT22;38161;53.020;6.598;2024-03-29T09:31:08;9.70;99.90
52187;DHT22;38161;53.020;6.598;2024-03-29T09:33:34;9.60;99.90
52187;DHT22;38161;53.020;6.598;2024-03-29T09:36:00;9.60;99.90
52187;DHT22;38161;53.020;6.598;2024-03-29T09:38:26;9.60;99.90
52187;DHT22;38161;53.020;6.598;2024-03-29T09:41:13;9.60;99.90
52187;DHT22;38161;53.020;6.598;2024-03-29T09:43:41;9.50;99.90
52187;DHT22;38161;53.020;6.598;2024-03-29T09:46:09;9.50;99.90
52187;DHT22;38161;53.020;6.598;2024-03-29T09:48:37;9.50;99.90
52187;DHT22;38161;53.020;6.598;2024-03-29T09:51:05;9.50;99.90
52187;DHT22;38161;53.020;6.598;2024-03-29T09:53:36;9.60;99.90
52187;DHT22;38161;53.020;6.598;2024-03-29T09:56:05;9.70;99.90
52187;DHT22;38161;53.020;6.598;2024-03-29T09:58:32;9.90;99.90
52187;DHT22;38161;53.020;6.598;2024-03-29T10:00:59;10.00;99.90
52187;DHT22;38161;53.020;6.598;2024-03-29T10:03:25;10.00;99.90
52187;DHT22;38161;53.020;6.598;2024-03-29T10:05:59;10.00;99.90
52187;DHT22;38161;53.020;6.598;2024-03-29T10:08:31;10.00;99.90
52187;DHT22;38161;53.020;6.598;2024-03-29T10:10:57;10.10;99.90
52187;DHT22;38161;53.020;6.598;2024-03-29T10:13:23;10.20;99.90
52187;DHT22;38161;53.020;6.598;2024-03-29T10:15:53;10.30;99.90
52187;DHT22;38161;53.020;6.598;2024-03-29T10:18:29;10.40;99.90
52187;DHT22;38161;53.020;6.598;2024-03-29T10:21:01;10.40;99.90
52187;DHT22;38161;53.020;6.598;2024-03-29T10:23:28;10.60;99.90
52187;DHT22;38161;53.020;6.598;2024-03-29T10:25:53;10.80;99.90
52187;DHT22;38161;53.020;6.598;2024-03-29T10:28:20;11.00;99.90
52187;DHT22;38161;53.020;6.598;2024-03-29T10:30:46;11.00;99.90
52187;DHT22;38161;53.020;6.598;2024-03-29T10:33:13;11.10;99.90
52187;DHT22;38161;53.020;6.598;2024-03-29T10:35:42;11.30;99.90
52187;DHT22;38161;53.020;6.598;2024-03-29T10:38:10;11.30;99.90
52187;DHT22;38161;53.020;6.598;2024-03-29T10:40:38;11.20;99.90
52187;DHT22;38161;53.020;6.598;2024-03-29T10:43:09;11.60;99.90
52187;DHT22;38161;53.020;6.598;2024-03-29T10:45:38;12.00;99.90
52187;DHT22;38161;53.020;6.598;2024-03-29T10:48:05;12.20;99.90
52187;DHT22;38161;53.020;6.598;2024-03-29T10:50:37;12.50;99.90
52187;DHT22;38161;53.020;6.598;2024-03-29T10:53:05;12.30;99.90
52187;DHT22;38161;53.020;6.598;2024-03-29T10:55:33;12.30;99.90
52187;DHT22;38161;53.020;6.598;2024-03-29T10:58:01;12.40;99.90
52187;DHT22;38161;53.020;6.598;2024-03-29T11:00:33;12.40;99.90
52187;DHT22;38161;53.020;6.598;2024-03-29T11:03:20;12.50;99.90
52187;DHT22;38161;53.020;6.598;2024-03-29T11:05:49;12.30;99.90
52187;DHT22;38161;53.020;6.598;2024-03-29T11:08:22;12.20;99.90
52187;DHT22;38161;53.020;6.598;2024-03-29T11:10:51;12.00;99.90
52187;DHT22;38161;53.020;6.598;2024-03-29T11:16:04;12.00;99.90
52187;DHT22;38161;53.020;6.598;2024-03-29T11:18:30;11.90;99.90
52187;DHT22;38161;53.020;6.598;2024-03-29T11:20:58;12.00;99.90
52187;DHT22;38161;53.020;6.598;2024-03-29T11:23:25;11.90;99.90
52187;DHT22;38161;53.020;6.598;2024-03-29T11:25:55;12.00;99.90
52187;DHT22;38161;53.020;6.598;2024-03-29T11:28:33;12.00;99.90
52187;DHT22;38161;53.020;6.598;2024-03-29T11:31:07;12.00;99.90
52187;DHT22;38161;53.020;6.598;2024-03-29T11:36:13;12.30;99.90
52187;DHT22;38161;53.020;6.598;2024-03-29T11:38:40;12.20;99.90
52187;DHT22;38161;53.020;6.598;2024-03-29T11:43:32;12.30;99.90
52187;DHT22;38161;53.020;6.598;2024-03-29T11:45:59;12.30;99.90
52187;DHT22;38161;53.020;6.598;2024-03-29T11:48:30;12.40;99.90
52187;DHT22;38161;53.020;6.598;2024-03-29T11:50:59;12.40;99.90
52187;DHT22;38161;53.020;6.598;2024-03-29T11:53:26;12.30;99.90
52187;DHT22;38161;53.020;6.598;2024-03-29T11:55:54;12.20;99.90
52187;DHT22;38161;53.020;6.598;2024-03-29T11:58:23;12.20;99.90
52187;DHT22;38161;53.020;6.598;2024-03-29T12:00:50;12.30;99.90
52187;DHT22;38161;53.020;6.598;2024-03-29T12:03:17;12.50;99.90
52187;DHT22;38161;53.020;6.598;2024-03-29T12:05:47;12.90;99.90
52187;DHT22;38161;53.020;6.598;2024-03-29T12:08:14;13.10;99.90
52187;DHT22;38161;53.020;6.598;2024-03-29T12:10:40;13.30;99.90
52187;DHT22;38161;53.020;6.598;2024-03-29T12:13:06;13.40;99.90
52187;DHT22;38161;53.020;6.598;2024-03-29T12:15:32;13.60;99.90
52187;DHT22;38161;53.020;6.598;2024-03-29T12:18:06;13.90;99.90
52187;DHT22;38161;53.020;6.598;2024-03-29T12:20:32;14.20;99.90
52187;DHT22;38161;53.020;6.598;2024-03-29T12:22:59;14.40;99.90
52187;DHT22;38161;53.020;6.598;2024-03-29T12:25:27;14.20;99.90
52187;DHT22;38161;53.020;6.598;2024-03-29T12:27:53;14.00;99.90
52187;DHT22;38161;53.020;6.598;2024-03-29T12:30:19;14.00;99.90
52187;DHT22;38161;53.020;6.598;2024-03-29T12:32:46;14.00;99.90
52187;DHT22;38161;53.020;6.598;2024-03-29T12:35:12;13.90;99.90
52187;DHT22;38161;53.020;6.598;2024-03-29T12:37:38;13.60;99.90
52187;DHT22;38161;53.020;6.598;2024-03-29T12:40:12;13.40;99.90
52187;DHT22;38161;53.020;6.598;2024-03-29T12:42:41;13.30;99.90
52187;DHT22;38161;53.020;6.598;2024-03-29T12:45:07;13.30;99.90
52187;DHT22;38161;53.020;6.598;2024-03-29T12:47:37;13.40;99.90
52187;DHT22;38161;53.020;6.598;2024-03-29T12:50:03;12.60;99.90
52187;DHT22;38161;53.020;6.598;2024-03-29T12:52:40;13.40;99.90
52187;DHT22;38161;53.020;6.598;2024-03-29T12:55:06;13.50;99.90
52187;DHT22;38161;53.020;6.598;2024-03-29T12:57:34;13.50;99.90
52187;DHT22;38161;53.020;6.598;2024-03-29T13:00:00;13.60;99.90
52187;DHT22;38161;53.020;6.598;2024-03-29T13:02:26;13.50;99.90
52187;DHT22;38161;53.020;6.598;2024-03-29T13:04:52;13.70;99.90
52187;DHT22;38161;53.020;6.598;2024-03-29T13:07:18;13.80;99.90
52187;DHT22;38161;53.020;6.598;2024-03-29T13:09:43;14.00;99.90
52187;DHT22;38161;53.020;6.598;2024-03-29T13:12:09;14.00;99.90
52187;DHT22;38161;53.020;6.598;2024-03-29T13:14:35;14.00;99.90
52187;DHT22;38161;53.020;6.598;2024-03-29T13:17:01;13.90;99.90
52187;DHT22;38161;53.020;6.598;2024-03-29T13:19:26;13.80;99.90
52187;DHT22;38161;53.020;6.598;2024-03-29T13:21:52;13.70;99.90
52187;DHT22;38161;53.020;6.598;2024-03-29T13:24:18;13.60;99.90
52187;DHT22;38161;53.020;6.598;2024-03-29T13:26:44;13.50;99.90
52187;DHT22;38161;53.020;6.598;2024-03-29T13:29:09;13.40;99.90
52187;DHT22;38161;53.020;6.598;2024-03-29T13:31:38;13.40;99.90
52187;DHT22;38161;53.020;6.598;2024-03-29T13:34:04;13.40;99.90
52187;DHT22;38161;53.020;6.598;2024-03-29T13:36:38;13.30;99.90
52187;DHT22;38161;53.020;6.598;2024-03-29T13:39:05;13.30;99.90
52187;DHT22;38161;53.020;6.598;2024-03-29T13:41:33;13.40;99.90
52187;DHT22;38161;53.020;6.598;2024-03-29T13:44:01;13.50;99.90
52187;DHT22;38161;53.020;6.598;2024-03-29T13:46:34;13.70;99.90
52187;DHT22;38161;53.020;6.598;2024-03-29T13:49:00;13.80;99.90
52187;DHT22;38161;53.020;6.598;2024-03-29T13:51:27;13.90;99.90
52187;DHT22;38161;53.020;6.598;2024-03-29T13:53:53;13.90;99.90
52187;DHT22;38161;53.020;6.598;2024-03-29T13:56:22;13.80;99.90
52187;DHT22;38161;53.020;6.598;2024-03-29T13:58:48;13.70;99.90
52187;DHT22;38161;53.020;6.598;2024-03-29T14:01:13;13.60;99.90
52187;DHT22;38161;53.020;6.598;2024-03-29T14:03:40;13.50;99.90
52187;DHT22;38161;53.020;6.598;2024-03-29T14:06:06;13.60;99.90
52187;DHT22;38161;53.020;6.598;2024-03-29T14:08:32;13.70;99.90
52187;DHT22;38161;53.020;6.598;2024-03-29T14:10:58;13.80;99.90
52187;DHT22;38161;53.020;6.598;2024-03-29T14:13:24;13.90;99.90
52187;DHT22;38161;53.020;6.598;2024-03-29T14:15:50;14.00;99.90
52187;DHT22;38161;53.020;6.598;2024-03-29T14:18:16;13.80;99.90
52187;DHT22;38161;53.020;6.598;2024-03-29T14:20:42;13.80;99.90
52187;DHT22;38161;53.020;6.598;2024-03-29T14:23:07;13.80;99.90
52187;DHT22;38161;53.020;6.598;2024-03-29T14:25:36;13.80;99.90
52187;DHT22;38161;53.020;6.598;2024-03-29T14:28:03;13.90;99.90
52187;DHT22;38161;53.020;6.598;2024-03-29T14:30:29;14.00;99.90
52187;DHT22;38161;53.020;6.598;2024-03-29T14:32:58;13.90;99.90
52187;DHT22;38161;53.020;6.598;2024-03-29T14:35:32;13.80;99.90
52187;DHT22;38161;53.020;6.598;2024-03-29T14:37:58;13.70;99.90
52187;DHT22;38161;53.020;6.598;2024-03-29T14:40:25;13.80;99.90
52187;DHT22;38161;53.020;6.598;2024-03-29T14:42:52;13.80;99.90
52187;DHT22;38161;53.020;6.598;2024-03-29T14:45:20;13.90;99.90
52187;DHT22;38161;53.020;6.598;2024-03-29T14:47:46;14.10;99.90
52187;DHT22;38161;53.020;6.598;2024-03-29T14:50:12;14.20;99.90
52187;DHT22;38161;53.020;6.598;2024-03-29T14:52:38;14.20;99.90
52187;DHT22;38161;53.020;6.598;2024-03-29T14:55:04;14.20;99.90
52187;DHT22;38161;53.020;6.598;2024-03-29T14:57:31;14.20;99.90
52187;DHT22;38161;53.020;6.598;2024-03-29T14:59:58;14.20;99.90
52187;DHT22;38161;53.020;6.598;2024-03-29T15:02:24;14.10;99.90
52187;DHT22;38161;53.020;6.598;2024-03-29T15:04:50;14.10;99.90
52187;DHT22;38161;53.020;6.598;2024-03-29T15:07:16;14.00;99.90
52187;DHT22;38161;53.020;6.598;2024-03-29T15:09:41;14.00;99.90
52187;DHT22;38161;53.020;6.598;2024-03-29T15:12:07;14.00;99.90
52187;DHT22;38161;53.020;6.598;2024-03-29T15:14:34;13.90;99.90
52187;DHT22;38161;53.020;6.598;2024-03-29T15:17:01;13.80;99.90
52187;DHT22;38161;53.020;6.598;2024-03-29T15:19:27;13.70;99.90
52187;DHT22;38161;53.020;6.598;2024-03-29T15:21:54;13.70;99.90
52187;DHT22;38161;53.020;6.598;2024-03-29T15:24:21;13.60;99.90
52187;DHT22;38161;53.020;6.598;2024-03-29T15:26:47;13.60;99.90
52187;DHT22;38161;53.020;6.598;2024-03-29T15:29:13;13.50;99.90
52187;DHT22;38161;53.020;6.598;2024-03-29T15:31:41;13.50;99.90
52187;DHT22;38161;53.020;6.598;2024-03-29T15:34:10;13.50;99.90
52187;DHT22;38161;53.020;6.598;2024-03-29T15:36:36;13.60;99.90
52187;DHT22;38161;53.020;6.598;2024-03-29T15:39:03;13.60;99.90
52187;DHT22;38161;53.020;6.598;2024-03-29T15:41:39;13.60;99.90
52187;DHT22;38161;53.020;6.598;2024-03-29T15:44:06;13.60;99.90
52187;DHT22;38161;53.020;6.598;2024-03-29T15:46:35;13.50;99.90